sensor_id;sensor_type;location;lat;lon;timestamp;pressure;altitude;pressure_sealevel;temperature;humidity
9717;BME280;4897;43.570;27.832;2022-11-15T00:01:15;99899.13;;;7.20;100.00
9717;BME280;4897;43.570;27.832;2022-11-15T00:03:43;99896.97;;;7.26;100.00
9717;BME280;4897;43.570;27.832;2022-11-15T00:06:10;99894.19;;;7.28;100.00
9717;BME280;4897;43.570;27.832;2022-11-15T00:08:39;99891.63;;;7.26;100.00
9717;BME280;4897;43.570;27.832;2022-11-15T00:11:06;99886.59;;;7.22;100.00
9717;BME280;4897;43.570;27.832;2022-11-15T00:13:32;99894.88;;;7.17;100.00
9717;BME280;4897;43.570;27.832;2022-11-15T00:16:00;99888.84;;;7.14;100.00
9717;BME280;4897;43.570;27.832;2022-11-15T00:18:28;99892.59;;;7.25;100.00
9717;BME280;4897;43.570;27.832;2022-11-15T00:20:55;99886.22;;;7.28;100.00
9717;BME280;4897;43.570;27.832;2022-11-15T00:23:22;99885.94;;;7.33;100.00
9717;BME280;4897;43.570;27.832;2022-11-15T00:25:56;99880.22;;;7.24;100.00
9717;BME280;4897;43.570;27.832;2022-11-15T00:28:24;99895.94;;;7.43;100.00
9717;BME280;4897;43.570;27.832;2022-11-15T00:30:51;99884.25;;;7.46;100.00
9717;BME280;4897;43.570;27.832;2022-11-15T00:33:18;99888.19;;;7.54;100.00
9717;BME280;4897;43.570;27.832;2022-11-15T00:35:45;99874.97;;;7.53;100.00
9717;BME280;4897;43.570;27.832;2022-11-15T00:38:12;99875.63;;;7.56;100.00
9717;BME280;4897;43.570;27.832;2022-11-15T00:40:38;99871.34;;;7.54;100.00
9717;BME280;4897;43.570;27.832;2022-11-15T00:43:07;99865.16;;;7.53;100.00
9717;BME280;4897;43.570;27.832;2022-11-15T00:45:33;99868.13;;;7.49;100.00
9717;BME280;4897;43.570;27.832;2022-11-15T00:48:00;99865.81;;;7.43;100.00
9717;BME280;4897;43.570;27.832;2022-11-15T00:50:27;99868.13;;;7.49;100.00
9717;BME280;4897;43.570;27.832;2022-11-15T00:52:54;99855.75;;;7.34;100.00
9717;BME280;4897;43.570;27.832;2022-11-15T00:55:21;99867.53;;;7.30;100.00
9717;BME280;4897;43.570;27.832;2022-11-15T00:57:48;99856.88;;;7.30;100.00
9717;BME280;4897;43.570;27.832;2022-11-15T01:00:17;99836.91;;;7.08;100.00
9717;BME280;4897;43.570;27.832;2022-11-15T01:02:43;99857.16;;;7.25;100.00
9717;BME280;4897;43.570;27.832;2022-11-15T01:05:10;99863.91;;;7.31;100.00
9717;BME280;4897;43.570;27.832;2022-11-15T01:07:37;99871.50;;;7.22;100.00
9717;BME280;4897;43.570;27.832;2022-11-15T01:10:05;99866.16;;;7.22;100.00
9717;BME280;4897;43.570;27.832;2022-11-15T01:12:32;99859.81;;;7.25;100.00
9717;BME280;4897;43.570;27.832;2022-11-15T01:14:59;99864.09;;;7.28;100.00
9717;BME280;4897;43.570;27.832;2022-11-15T01:17:27;99850.88;;;7.26;100.00
9717;BME280;4897;43.570;27.832;2022-11-15T01:19:54;99851.56;;;7.30;100.00
9717;BME280;4897;43.570;27.832;2022-11-15T01:22:21;99855.44;;;7.24;100.00
9717;BME280;4897;43.570;27.832;2022-11-15T01:24:49;99849.28;;;7.23;100.00
9717;BME280;4897;43.570;27.832;2022-11-15T01:27:16;99854.28;;;7.28;100.00
9717;BME280;4897;43.570;27.832;2022-11-15T01:29:43;99829.69;;;7.10;100.00
9717;BME280;4897;43.570;27.832;2022-11-15T01:32:10;99849.06;;;7.26;100.00
9717;BME280;4897;43.570;27.832;2022-11-15T01:34:38;99862.38;;;7.26;100.00
9717;BME280;4897;43.570;27.832;2022-11-15T01:37:05;99866.75;;;7.28;100.00
9717;BME280;4897;43.570;27.832;2022-11-15T01:39:32;99861.19;;;7.32;100.00
9717;BME280;4897;43.570;27.832;2022-11-15T01:41:59;99867.41;;;7.17;100.00
9717;BME280;4897;43.570;27.832;2022-11-15T01:44:38;99863.72;;;7.19;100.00
9717;BME280;4897;43.570;27.832;2022-11-15T01:47:10;99856.78;;;7.31;100.00
9717;BME280;4897;43.570;27.832;2022-11-15T01:49:43;99855.38;;;7.25;100.00
9717;BME280;4897;43.570;27.832;2022-11-15T01:52:20;99855.63;;;7.21;100.00
9717;BME280;4897;43.570;27.832;2022-11-15T01:54:52;99839.78;;;7.19;100.00
9717;BME280;4897;43.570;27.832;2022-11-15T01:57:20;99836.81;;;7.24;100.00
9717;BME280;4897;43.570;27.832;2022-11-15T01:59:47;99836.75;;;7.25;100.00
9717;BME280;4897;43.570;27.832;2022-11-15T02:02:15;99846.63;;;7.38;100.00
9717;BME280;4897;43.570;27.832;2022-11-15T02:04:45;99852.50;;;7.43;100.00
9717;BME280;4897;43.570;27.832;2022-11-15T02:07:14;99834.09;;;7.40;100.00
9717;BME280;4897;43.570;27.832;2022-11-15T02:09:43;99837.88;;;7.36;100.00
9717;BME280;4897;43.570;27.832;2022-11-15T02:12:11;99771.88;;;6.84;100.00
9717;BME280;4897;43.570;27.832;2022-11-15T02:14:41;99843.25;;;7.20;100.00
9717;BME280;4897;43.570;27.832;2022-11-15T02:17:37;99829.13;;;7.19;100.00
9717;BME280;4897;43.570;27.832;2022-11-15T02:20:39;99828.84;;;7.24;100.00
9717;BME280;4897;43.570;27.832;2022-11-15T02:23:37;99827.41;;;7.33;100.00
9717;BME280;4897;43.570;27.832;2022-11-15T02:26:39;99824.59;;;7.21;100.00
9717;BME280;4897;43.570;27.832;2022-11-15T02:29:14;99829.97;;;7.20;100.00
9717;BME280;4897;43.570;27.832;2022-11-15T02:31:52;99822.69;;;7.23;100.00
9717;BME280;4897;43.570;27.832;2022-11-15T02:34:32;99822.84;;;7.20;100.00
9717;BME280;4897;43.570;27.832;2022-11-15T02:37:05;99835.38;;;7.04;100.00
9717;BME280;4897;43.570;27.832;2022-11-15T02:39:37;99810.88;;;7.13;100.00
9717;BME280;4897;43.570;27.832;2022-11-15T02:42:09;99802.44;;;7.21;100.00
9717;BME280;4897;43.570;27.832;2022-11-15T02:44:53;99814.78;;;7.22;100.00
9717;BME280;4897;43.570;27.832;2022-11-15T02:47:24;99810.22;;;7.24;100.00
9717;BME280;4897;43.570;27.832;2022-11-15T02:49:57;99779.44;;;7.06;100.00
9717;BME280;4897;43.570;27.832;2022-11-15T02:52:25;99816.41;;;7.24;100.00
9717;BME280;4897;43.570;27.832;2022-11-15T02:54:54;99806.41;;;7.28;100.00
9717;BME280;4897;43.570;27.832;2022-11-15T02:57:29;99807.00;;;7.19;100.00
9717;BME280;4897;43.570;27.832;2022-11-15T03:00:03;99810.91;;;7.28;100.00
9717;BME280;4897;43.570;27.832;2022-11-15T03:05:27;99806.53;;;7.41;100.00
9717;BME280;4897;43.570;27.832;2022-11-15T03:08:01;99770.97;;;7.13;100.00
9717;BME280;4897;43.570;27.832;2022-11-15T03:10:38;99803.84;;;7.26;100.00
9717;BME280;4897;43.570;27.832;2022-11-15T03:13:23;99796.25;;;7.35;100.00
9717;BME280;4897;43.570;27.832;2022-11-15T03:15:55;99807.28;;;7.43;100.00
9717;BME280;4897;43.570;27.832;2022-11-15T03:18:29;99806.25;;;7.31;100.00
9717;BME280;4897;43.570;27.832;2022-11-15T03:21:00;99804.16;;;7.36;100.00
9717;BME280;4897;43.570;27.832;2022-11-15T03:23:30;99771.84;;;7.14;100.00
9717;BME280;4897;43.570;27.832;2022-11-15T03:25:58;99723.09;;;6.85;100.00
9717;BME280;4897;43.570;27.832;2022-11-15T03:28:30;99803.69;;;7.30;100.00
9717;BME280;4897;43.570;27.832;2022-11-15T03:31:00;99801.19;;;7.41;100.00
9717;BME280;4897;43.570;27.832;2022-11-15T03:33:51;99774.16;;;7.34;100.00
9717;BME280;4897;43.570;27.832;2022-11-15T03:36:21;99795.88;;;7.41;100.00
9717;BME280;4897;43.570;27.832;2022-11-15T03:38:51;99780.78;;;7.27;100.00
9717;BME280;4897;43.570;27.832;2022-11-15T03:41:23;99779.53;;;7.18;100.00
9717;BME280;4897;43.570;27.832;2022-11-15T03:43:56;99785.72;;;7.33;100.00
9717;BME280;4897;43.570;27.832;2022-11-15T03:46:27;99779.53;;;7.33;100.00
9717;BME280;4897;43.570;27.832;2022-11-15T03:49:00;99782.19;;;7.33;100.00
9717;BME280;4897;43.570;27.832;2022-11-15T03:51:30;99781.06;;;7.37;100.00
9717;BME280;4897;43.570;27.832;2022-11-15T03:53:57;99765.75;;;7.26;100.00
9717;BME280;4897;43.570;27.832;2022-11-15T03:56:24;99776.41;;;7.26;100.00
9717;BME280;4897;43.570;27.832;2022-11-15T03:58:51;99739.91;;;7.14;100.00
9717;BME280;4897;43.570;27.832;2022-11-15T04:01:19;99774.69;;;7.25;100.00
9717;BME280;4897;43.570;27.832;2022-11-15T04:03:45;99760.44;;;7.26;100.00
9717;BME280;4897;43.570;27.832;2022-11-15T04:06:14;99763.84;;;7.28;100.00
9717;BME280;4897;43.570;27.832;2022-11-15T04:08:41;99769.09;;;7.30;100.00
9717;BME280;4897;43.570;27.832;2022-11-15T04:11:08;99768.91;;;7.33;100.00
9717;BME280;4897;43.570;27.832;2022-11-15T04:13:34;99770.72;;;7.32;100.00
9717;BME280;4897;43.570;27.832;2022-11-15T04:16:01;99763.41;;;7.21;100.00
9717;BME280;4897;43.570;27.832;2022-11-15T04:18:28;99770.78;;;7.16;100.00
9717;BME280;4897;43.570;27.832;2022-11-15T04:20:55;99761.56;;;7.22;100.00
9717;BME280;4897;43.570;27.832;2022-11-15T04:23:41;99763.78;;;7.30;100.00
9717;BME280;4897;43.570;27.832;2022-11-15T04:26:25;99765.97;;;7.37;100.00
9717;BME280;4897;43.570;27.832;2022-11-15T04:28:52;99767.97;;;7.34;100.00
9717;BME280;4897;43.570;27.832;2022-11-15T04:31:36;99766.44;;;7.30;100.00
9717;BME280;4897;43.570;27.832;2022-11-15T04:34:03;99758.75;;;7.25;100.00
9717;BME280;4897;43.570;27.832;2022-11-15T04:36:30;99766.72;;;7.25;100.00
9717;BME280;4897;43.570;27.832;2022-11-15T04:39:15;99761.69;;;7.20;100.00
9717;BME280;4897;43.570;27.832;2022-11-15T04:41:42;99765.41;;;7.32;100.00
9717;BME280;4897;43.570;27.832;2022-11-15T04:44:09;99764.53;;;7.32;100.00
9717;BME280;4897;43.570;27.832;2022-11-15T04:46:36;99760.81;;;7.20;100.00
9717;BME280;4897;43.570;27.832;2022-11-15T04:49:03;99745.63;;;7.36;100.00
9717;BME280;4897;43.570;27.832;2022-11-15T04:51:30;99753.91;;;7.32;100.00
9717;BME280;4897;43.570;27.832;2022-11-15T04:53:57;99712.84;;;7.07;100.00
9717;BME280;4897;43.570;27.832;2022-11-15T04:56:27;99750.56;;;7.28;100.00
9717;BME280;4897;43.570;27.832;2022-11-15T04:58:54;99759.50;;;7.27;100.00
9717;BME280;4897;43.570;27.832;2022-11-15T05:01:21;99630.44;;;6.65;100.00
9717;BME280;4897;43.570;27.832;2022-11-15T05:03:48;99564.16;;;6.20;100.00
9717;BME280;4897;43.570;27.832;2022-11-15T05:06:32;99749.78;;;7.26;100.00
9717;BME280;4897;43.570;27.832;2022-11-15T05:08:59;99749.63;;;7.29;100.00
9717;BME280;4897;43.570;27.832;2022-11-15T05:11:27;99757.03;;;7.24;100.00
9717;BME280;4897;43.570;27.832;2022-11-15T05:13:54;99736.22;;;7.16;100.00
9717;BME280;4897;43.570;27.832;2022-11-15T05:16:21;99754.34;;;7.24;100.00
9717;BME280;4897;43.570;27.832;2022-11-15T05:18:50;99757.03;;;7.24;100.00
9717;BME280;4897;43.570;27.832;2022-11-15T05:21:17;99759.31;;;7.30;100.00
9717;BME280;4897;43.570;27.832;2022-11-15T05:23:44;99751.78;;;7.37;100.00
9717;BME280;4897;43.570;27.832;2022-11-15T05:26:15;99700.69;;;6.75;100.00
9717;BME280;4897;43.570;27.832;2022-11-15T05:28:44;99740.59;;;7.17;100.00
9717;BME280;4897;43.570;27.832;2022-11-15T05:31:13;99664.63;;;6.71;100.00
9717;BME280;4897;43.570;27.832;2022-11-15T05:33:41;99758.91;;;7.22;100.00
9717;BME280;4897;43.570;27.832;2022-11-15T05:36:12;99756.34;;;7.20;100.00
9717;BME280;4897;43.570;27.832;2022-11-15T05:38:44;99689.69;;;6.81;100.00
9717;BME280;4897;43.570;27.832;2022-11-15T05:41:13;99730.44;;;7.10;100.00
9717;BME280;4897;43.570;27.832;2022-11-15T05:43:43;99759.13;;;7.19;100.00
9717;BME280;4897;43.570;27.832;2022-11-15T05:46:12;99749.53;;;7.16;100.00
9717;BME280;4897;43.570;27.832;2022-11-15T05:48:41;99753.13;;;7.15;100.00
9717;BME280;4897;43.570;27.832;2022-11-15T05:51:14;99751.53;;;7.27;100.00
9717;BME280;4897;43.570;27.832;2022-11-15T05:53:42;99759.41;;;7.28;100.00
9717;BME280;4897;43.570;27.832;2022-11-15T05:56:10;99761.50;;;7.23;100.00
9717;BME280;4897;43.570;27.832;2022-11-15T05:58:37;99762.91;;;7.29;100.00
9717;BME280;4897;43.570;27.832;2022-11-15T06:01:06;99758.84;;;7.38;100.00
9717;BME280;4897;43.570;27.832;2022-11-15T06:03:33;99761.59;;;7.36;100.00
9717;BME280;4897;43.570;27.832;2022-11-15T06:06:00;99761.78;;;7.33;100.00
9717;BME280;4897;43.570;27.832;2022-11-15T06:08:27;99759.50;;;7.41;100.00
9717;BME280;4897;43.570;27.832;2022-11-15T06:10:54;99748.28;;;7.50;100.00
9717;BME280;4897;43.570;27.832;2022-11-15T06:13:21;99745.72;;;7.49;100.00
9717;BME280;4897;43.570;27.832;2022-11-15T06:15:48;99751.41;;;7.57;100.00
9717;BME280;4897;43.570;27.832;2022-11-15T06:18:16;99754.44;;;7.65;100.00
9717;BME280;4897;43.570;27.832;2022-11-15T06:20:43;99747.00;;;7.70;100.00
9717;BME280;4897;43.570;27.832;2022-11-15T06:23:10;99748.16;;;7.66;100.00
9717;BME280;4897;43.570;27.832;2022-11-15T06:25:38;99749.78;;;7.68;100.00
9717;BME280;4897;43.570;27.832;2022-11-15T06:28:05;99751.56;;;7.68;100.00
9717;BME280;4897;43.570;27.832;2022-11-15T06:30:32;99747.41;;;7.78;100.00
9717;BME280;4897;43.570;27.832;2022-11-15T06:33:00;99740.88;;;7.96;100.00
9717;BME280;4897;43.570;27.832;2022-11-15T06:35:30;99701.84;;;8.09;100.00
9717;BME280;4897;43.570;27.832;2022-11-15T06:38:02;99748.88;;;8.49;100.00
9717;BME280;4897;43.570;27.832;2022-11-15T06:40:34;99752.22;;;8.65;100.00
9717;BME280;4897;43.570;27.832;2022-11-15T06:43:01;99749.25;;;8.82;100.00
9717;BME280;4897;43.570;27.832;2022-11-15T06:45:29;99751.84;;;8.84;100.00
9717;BME280;4897;43.570;27.832;2022-11-15T06:47:56;99765.50;;;8.92;100.00
9717;BME280;4897;43.570;27.832;2022-11-15T06:50:23;99746.53;;;9.22;100.00
9717;BME280;4897;43.570;27.832;2022-11-15T06:52:52;99734.13;;;9.08;100.00
9717;BME280;4897;43.570;27.832;2022-11-15T06:55:19;99734.56;;;8.90;100.00
9717;BME280;4897;43.570;27.832;2022-11-15T06:57:48;99744.59;;;8.86;100.00
9717;BME280;4897;43.570;27.832;2022-11-15T07:00:16;99746.06;;;8.77;100.00
9717;BME280;4897;43.570;27.832;2022-11-15T07:02:43;99743.06;;;8.69;100.00
9717;BME280;4897;43.570;27.832;2022-11-15T07:05:10;99729.59;;;8.58;100.00
9717;BME280;4897;43.570;27.832;2022-11-15T07:07:37;99725.34;;;8.68;100.00
9717;BME280;4897;43.570;27.832;2022-11-15T07:10:07;99719.50;;;8.63;100.00
9717;BME280;4897;43.570;27.832;2022-11-15T07:12:35;99736.25;;;8.78;100.00
9717;BME280;4897;43.570;27.832;2022-11-15T07:15:03;99737.50;;;8.72;100.00
9717;BME280;4897;43.570;27.832;2022-11-15T07:17:30;99741.56;;;8.65;100.00
9717;BME280;4897;43.570;27.832;2022-11-15T07:19:57;99734.06;;;8.58;100.00
9717;BME280;4897;43.570;27.832;2022-11-15T07:22:24;99708.06;;;8.49;100.00
9717;BME280;4897;43.570;27.832;2022-11-15T07:24:51;99741.16;;;8.71;100.00
9717;BME280;4897;43.570;27.832;2022-11-15T07:27:19;99700.56;;;8.41;100.00
9717;BME280;4897;43.570;27.832;2022-11-15T07:29:46;99691.59;;;8.30;100.00
9717;BME280;4897;43.570;27.832;2022-11-15T07:32:13;99679.78;;;8.34;100.00
9717;BME280;4897;43.570;27.832;2022-11-15T07:34:40;99734.50;;;8.64;100.00
9717;BME280;4897;43.570;27.832;2022-11-15T07:37:07;99735.16;;;8.68;100.00
9717;BME280;4897;43.570;27.832;2022-11-15T07:39:34;99730.69;;;8.68;100.00
9717;BME280;4897;43.570;27.832;2022-11-15T07:42:01;99741.59;;;8.78;100.00
9717;BME280;4897;43.570;27.832;2022-11-15T07:44:46;99746.91;;;8.78;100.00
9717;BME280;4897;43.570;27.832;2022-11-15T07:47:13;99743.75;;;9.11;100.00
9717;BME280;4897;43.570;27.832;2022-11-15T07:49:40;99734.13;;;9.33;100.00
9717;BME280;4897;43.570;27.832;2022-11-15T07:52:07;99754.72;;;9.19;100.00
9717;BME280;4897;43.570;27.832;2022-11-15T07:54:34;99711.94;;;9.08;100.00
9717;BME280;4897;43.570;27.832;2022-11-15T07:57:01;99717.06;;;9.11;100.00
9717;BME280;4897;43.570;27.832;2022-11-15T07:59:28;99724.50;;;9.18;100.00
9717;BME280;4897;43.570;27.832;2022-11-15T08:01:56;99732.19;;;9.23;100.00
9717;BME280;4897;43.570;27.832;2022-11-15T08:04:23;99723.13;;;9.38;100.00
9717;BME280;4897;43.570;27.832;2022-11-15T08:06:50;99709.34;;;9.44;100.00
9717;BME280;4897;43.570;27.832;2022-11-15T08:09:17;99690.34;;;9.36;100.00
9717;BME280;4897;43.570;27.832;2022-11-15T08:11:44;99702.91;;;9.59;100.00
9717;BME280;4897;43.570;27.832;2022-11-15T08:14:10;99715.38;;;9.71;100.00
9717;BME280;4897;43.570;27.832;2022-11-15T08:16:38;99712.09;;;9.55;100.00
9717;BME280;4897;43.570;27.832;2022-11-15T08:19:06;99720.41;;;9.63;100.00
9717;BME280;4897;43.570;27.832;2022-11-15T08:21:33;99703.41;;;9.64;100.00
9717;BME280;4897;43.570;27.832;2022-11-15T08:24:00;99702.81;;;10.08;100.00
9717;BME280;4897;43.570;27.832;2022-11-15T08:26:27;99718.03;;;10.07;100.00
9717;BME280;4897;43.570;27.832;2022-11-15T08:28:55;99714.19;;;10.11;100.00
9717;BME280;4897;43.570;27.832;2022-11-15T08:31:22;99713.94;;;9.91;100.00
9717;BME280;4897;43.570;27.832;2022-11-15T08:33:49;99725.38;;;9.80;100.00
9717;BME280;4897;43.570;27.832;2022-11-15T08:36:17;99710.16;;;9.93;100.00
9717;BME280;4897;43.570;27.832;2022-11-15T08:38:45;99702.19;;;9.81;100.00
9717;BME280;4897;43.570;27.832;2022-11-15T08:41:14;99709.41;;;9.91;100.00
9717;BME280;4897;43.570;27.832;2022-11-15T08:43:43;99708.59;;;9.91;100.00
9717;BME280;4897;43.570;27.832;2022-11-15T08:46:12;99702.78;;;9.97;100.00
9717;BME280;4897;43.570;27.832;2022-11-15T08:48:39;99688.38;;;9.87;100.00
9717;BME280;4897;43.570;27.832;2022-11-15T08:51:06;99700.00;;;9.98;100.00
9717;BME280;4897;43.570;27.832;2022-11-15T08:53:35;99703.25;;;9.91;100.00
9717;BME280;4897;43.570;27.832;2022-11-15T08:56:02;99693.97;;;10.07;100.00
9717;BME280;4897;43.570;27.832;2022-11-15T08:58:29;99689.72;;;10.05;100.00
9717;BME280;4897;43.570;27.832;2022-11-15T09:00:56;99685.63;;;10.12;100.00
9717;BME280;4897;43.570;27.832;2022-11-15T09:03:23;99688.53;;;10.32;100.00
9717;BME280;4897;43.570;27.832;2022-11-15T09:05:54;99673.56;;;10.30;100.00
9717;BME280;4897;43.570;27.832;2022-11-15T09:08:21;99670.28;;;10.03;100.00
9717;BME280;4897;43.570;27.832;2022-11-15T09:10:49;99678.69;;;10.09;100.00
9717;BME280;4897;43.570;27.832;2022-11-15T09:13:16;99630.19;;;9.79;100.00
9717;BME280;4897;43.570;27.832;2022-11-15T09:15:43;99691.31;;;10.07;100.00
9717;BME280;4897;43.570;27.832;2022-11-15T09:18:10;99653.34;;;10.15;100.00
9717;BME280;4897;43.570;27.832;2022-11-15T09:20:37;99663.44;;;10.22;100.00
9717;BME280;4897;43.570;27.832;2022-11-15T09:23:05;99650.50;;;10.05;100.00
9717;BME280;4897;43.570;27.832;2022-11-15T09:25:32;99659.31;;;10.18;100.00
9717;BME280;4897;43.570;27.832;2022-11-15T09:28:00;99655.22;;;10.25;100.00
9717;BME280;4897;43.570;27.832;2022-11-15T09:30:27;99649.34;;;10.20;100.00
9717;BME280;4897;43.570;27.832;2022-11-15T09:32:54;99633.47;;;10.06;100.00
9717;BME280;4897;43.570;27.832;2022-11-15T09:35:21;99634.34;;;10.07;100.00
9717;BME280;4897;43.570;27.832;2022-11-15T09:37:48;99655.22;;;10.25;100.00
9717;BME280;4897;43.570;27.832;2022-11-15T09:40:16;99653.22;;;10.16;100.00
9717;BME280;4897;43.570;27.832;2022-11-15T09:43:03;99599.88;;;9.80;100.00
9717;BME280;4897;43.570;27.832;2022-11-15T09:45:34;99644.75;;;10.22;100.00
9717;BME280;4897;43.570;27.832;2022-11-15T09:48:24;99637.19;;;10.16;100.00
9717;BME280;4897;43.570;27.832;2022-11-15T09:50:53;99630.63;;;10.20;100.00
9717;BME280;4897;43.570;27.832;2022-11-15T09:53:26;99632.88;;;10.37;100.00
9717;BME280;4897;43.570;27.832;2022-11-15T09:56:01;99630.94;;;10.39;100.00
9717;BME280;4897;43.570;27.832;2022-11-15T09:58:35;99630.22;;;10.37;100.00
9717;BME280;4897;43.570;27.832;2022-11-15T10:01:07;99616.84;;;10.37;100.00
9717;BME280;4897;43.570;27.832;2022-11-15T10:03:38;99616.63;;;10.40;100.00
9717;BME280;4897;43.570;27.832;2022-11-15T10:06:21;99628.94;;;10.19;100.00
9717;BME280;4897;43.570;27.832;2022-11-15T10:08:55;99610.59;;;10.15;100.00
9717;BME280;4897;43.570;27.832;2022-11-15T10:11:28;99614.13;;;10.15;100.00
9717;BME280;4897;43.570;27.832;2022-11-15T10:13:59;99550.34;;;9.87;100.00
9717;BME280;4897;43.570;27.832;2022-11-15T10:19:35;99586.66;;;10.13;100.00
9717;BME280;4897;43.570;27.832;2022-11-15T10:22:17;99586.41;;;10.16;100.00
9717;BME280;4897;43.570;27.832;2022-11-15T10:24:46;99582.34;;;10.34;100.00
9717;BME280;4897;43.570;27.832;2022-11-15T10:27:15;99577.75;;;10.59;100.00
9717;BME280;4897;43.570;27.832;2022-11-15T10:29:46;99574.59;;;10.65;100.00
9717;BME280;4897;43.570;27.832;2022-11-15T10:32:16;99558.09;;;10.60;100.00
9717;BME280;4897;43.570;27.832;2022-11-15T10:34:43;99509.63;;;10.07;100.00
9717;BME280;4897;43.570;27.832;2022-11-15T10:37:10;99562.44;;;10.61;100.00
9717;BME280;4897;43.570;27.832;2022-11-15T10:39:38;99565.72;;;10.64;100.00
9717;BME280;4897;43.570;27.832;2022-11-15T10:42:25;99552.50;;;10.74;100.00
9717;BME280;4897;43.570;27.832;2022-11-15T10:44:54;99566.69;;;10.85;100.00
9717;BME280;4897;43.570;27.832;2022-11-15T10:47:27;99524.03;;;10.84;100.00
9717;BME280;4897;43.570;27.832;2022-11-15T10:50:02;99545.16;;;11.09;100.00
9717;BME280;4897;43.570;27.832;2022-11-15T10:52:33;99543.56;;;11.17;100.00
9717;BME280;4897;43.570;27.832;2022-11-15T10:55:05;99542.56;;;11.30;100.00
9717;BME280;4897;43.570;27.832;2022-11-15T10:57:36;99490.00;;;11.28;100.00
9717;BME280;4897;43.570;27.832;2022-11-15T11:00:12;99526.53;;;11.61;100.00
9717;BME280;4897;43.570;27.832;2022-11-15T11:02:57;99534.53;;;11.72;100.00
9717;BME280;4897;43.570;27.832;2022-11-15T11:05:27;99519.75;;;11.89;100.00
9717;BME280;4897;43.570;27.832;2022-11-15T11:07:57;99520.72;;;12.09;100.00
9717;BME280;4897;43.570;27.832;2022-11-15T11:10:24;99455.88;;;11.73;100.00
9717;BME280;4897;43.570;27.832;2022-11-15T11:12:51;99523.03;;;12.13;100.00
9717;BME280;4897;43.570;27.832;2022-11-15T11:15:22;99495.94;;;11.95;100.00
9717;BME280;4897;43.570;27.832;2022-11-15T11:18:01;99511.38;;;12.03;100.00
9717;BME280;4897;43.570;27.832;2022-11-15T11:20:33;99492.69;;;11.92;100.00
9717;BME280;4897;43.570;27.832;2022-11-15T11:23:12;99496.88;;;12.06;100.00
9717;BME280;4897;43.570;27.832;2022-11-15T11:25:49;99505.41;;;11.99;100.00
9717;BME280;4897;43.570;27.832;2022-11-15T11:28:30;99493.34;;;12.05;100.00
9717;BME280;4897;43.570;27.832;2022-11-15T11:31:12;99483.72;;;12.23;100.00
9717;BME280;4897;43.570;27.832;2022-11-15T11:33:44;99489.25;;;12.31;100.00
9717;BME280;4897;43.570;27.832;2022-11-15T11:36:22;99483.50;;;12.36;100.00
9717;BME280;4897;43.570;27.832;2022-11-15T11:39:10;99470.09;;;12.36;100.00
9717;BME280;4897;43.570;27.832;2022-11-15T11:41:51;99483.34;;;12.37;100.00
9717;BME280;4897;43.570;27.832;2022-11-15T11:44:30;99467.56;;;12.44;100.00
9717;BME280;4897;43.570;27.832;2022-11-15T11:47:02;99463.66;;;12.48;100.00
9717;BME280;4897;43.570;27.832;2022-11-15T11:49:34;99461.69;;;12.50;100.00
9717;BME280;4897;43.570;27.832;2022-11-15T11:52:10;99418.81;;;12.59;100.00
9717;BME280;4897;43.570;27.832;2022-11-15T11:54:47;99447.78;;;13.05;100.00
9717;BME280;4897;43.570;27.832;2022-11-15T11:57:22;99442.44;;;13.24;100.00
9717;BME280;4897;43.570;27.832;2022-11-15T11:59:58;99438.16;;;13.12;100.00
9717;BME280;4897;43.570;27.832;2022-11-15T12:02:29;99446.94;;;13.24;100.00
9717;BME280;4897;43.570;27.832;2022-11-15T12:05:09;99451.31;;;13.15;100.00
9717;BME280;4897;43.570;27.832;2022-11-15T12:07:39;99429.63;;;12.88;100.00
9717;BME280;4897;43.570;27.832;2022-11-15T12:10:17;99418.81;;;13.09;100.00
9717;BME280;4897;43.570;27.832;2022-11-15T12:12:53;99358.75;;;13.10;100.00
9717;BME280;4897;43.570;27.832;2022-11-15T12:15:25;99404.69;;;13.64;100.00
9717;BME280;4897;43.570;27.832;2022-11-15T12:17:56;99419.16;;;14.09;100.00
9717;BME280;4897;43.570;27.832;2022-11-15T12:20:26;99401.53;;;14.34;100.00
9717;BME280;4897;43.570;27.832;2022-11-15T12:22:56;99405.97;;;14.53;100.00
9717;BME280;4897;43.570;27.832;2022-11-15T12:25:28;99397.75;;;14.54;100.00
9717;BME280;4897;43.570;27.832;2022-11-15T12:28:06;99403.34;;;14.70;100.00
9717;BME280;4897;43.570;27.832;2022-11-15T12:30:43;99400.78;;;14.41;100.00
9717;BME280;4897;43.570;27.832;2022-11-15T12:33:30;99384.97;;;13.73;100.00
9717;BME280;4897;43.570;27.832;2022-11-15T12:35:59;99392.94;;;13.55;100.00
9717;BME280;4897;43.570;27.832;2022-11-15T12:38:53;99391.53;;;13.42;100.00
9717;BME280;4897;43.570;27.832;2022-11-15T12:41:22;99371.19;;;13.20;100.00
9717;BME280;4897;43.570;27.832;2022-11-15T12:43:50;99384.91;;;13.17;100.00
9717;BME280;4897;43.570;27.832;2022-11-15T12:47:04;99392.13;;;13.26;100.00
9717;BME280;4897;43.570;27.832;2022-11-15T12:49:50;99389.56;;;13.06;100.00
9717;BME280;4897;43.570;27.832;2022-11-15T12:52:18;99377.50;;;12.91;100.00
9717;BME280;4897;43.570;27.832;2022-11-15T12:57:51;99381.63;;;13.04;100.00
9717;BME280;4897;43.570;27.832;2022-11-15T13:00:42;99363.50;;;12.87;100.00
9717;BME280;4897;43.570;27.832;2022-11-15T13:03:26;99381.25;;;12.69;100.00
9717;BME280;4897;43.570;27.832;2022-11-15T13:06:02;99375.13;;;12.48;100.00
9717;BME280;4897;43.570;27.832;2022-11-15T13:08:48;99372.69;;;12.35;100.00
9717;BME280;4897;43.570;27.832;2022-11-15T13:11:50;99373.25;;;12.29;100.00
9717;BME280;4897;43.570;27.832;2022-11-15T13:17:30;99362.31;;;11.81;100.00
9717;BME280;4897;43.570;27.832;2022-11-15T13:22:46;99365.16;;;11.89;100.00
9717;BME280;4897;43.570;27.832;2022-11-15T13:25:58;99360.19;;;12.06;100.00
9717;BME280;4897;43.570;27.832;2022-11-15T13:28:32;99361.59;;;12.10;100.00
9717;BME280;4897;43.570;27.832;2022-11-15T13:31:12;99364.38;;;11.98;100.00
9717;BME280;4897;43.570;27.832;2022-11-15T13:33:41;99361.50;;;11.90;100.00
9717;BME280;4897;43.570;27.832;2022-11-15T13:36:13;99341.72;;;11.82;100.00
9717;BME280;4897;43.570;27.832;2022-11-15T13:38:43;99359.97;;;11.97;100.00
9717;BME280;4897;43.570;27.832;2022-11-15T13:41:17;99363.13;;;12.02;100.00
9717;BME280;4897;43.570;27.832;2022-11-15T13:43:46;99338.03;;;12.03;100.00